Time;durP1;ratioP1;P1;durP2;ratioP2;P2;SDS_P1;SDS_P2;PMS_P1;PMS_P2;Temp;Humidity;BMP_temperature;BMP_pressure;BME280_temperature;BME280_humidity;BME280_pressure;Samples;Min_cycle;Max_cycle;Signal;HPM_P1;HPM_P2
2021/10/27 00:00:42;;;;;;;16.90;10.33;;;;;;;12.54;95.36;102015.00;2106349;28;20027;-70
2021/10/27 00:01:43;;;;;;;13.07;9.97;;;;;;;12.57;95.20;102014.03;2106556;28;20501;-70
2021/10/27 00:02:43;;;;;;;;;;;;;;;12.58;95.13;102019.22;2107810;28;20380;-69
2021/10/27 00:03:43;;;;;;;15.53;8.23;;;;;;;12.57;95.25;102000.94;2106968;28;19908;-68
2021/10/27 00:04:44;;;;;;;14.97;9.97;;;;;;;12.60;95.11;102021.81;2107151;28;20432;-72
2021/10/27 00:05:44;;;;;;;19.57;12.73;;;;;;;12.60;95.07;102016.56;2107196;28;20035;-69
2021/10/27 00:06:44;;;;;;;18.80;10.50;;;;;;;12.58;95.23;102015.75;2107264;28;20020;-69
2021/10/27 00:07:45;;;;;;;18.87;10.43;;;;;;;12.56;95.03;102017.56;2107132;28;20028;-72
2021/10/27 00:08:45;;;;;;;16.07;11.30;;;;;;;12.55;95.12;102024.56;2107107;28;20028;-69
2021/10/27 00:09:45;;;;;;;17.63;12.13;;;;;;;12.53;95.48;102021.16;2106497;28;20050;-69
2021/10/27 00:10:46;;;;;;;15.53;10.60;;;;;;;12.53;95.48;102021.16;2106684;28;20053;-70
2021/10/27 00:11:46;;;;;;;14.80;11.20;;;;;;;12.54;95.60;102025.47;2107181;28;20024;-70
2021/10/27 00:12:47;;;;;;;16.03;9.13;;;;;;;12.52;95.34;102023.81;2107162;28;20301;-70
2021/10/27 00:13:47;;;;;;;25.25;11.98;;;;;;;12.55;95.04;102026.31;2107016;28;20041;-72
2021/10/27 00:14:47;;;;;;;15.73;10.17;;;;;;;12.54;95.72;102025.47;2106576;28;20061;-70
2021/10/27 00:15:48;;;;;;;16.63;9.23;;;;;;;12.56;95.51;102033.28;2106515;28;20022;-70
2021/10/27 00:16:48;;;;;;;12.60;9.03;;;;;;;12.57;95.38;102025.38;2107017;28;20015;-69
2021/10/27 00:17:49;;;;;;;17.60;9.70;;;;;;;12.58;95.55;102023.59;2107173;28;20798;-68
2021/10/27 00:18:49;;;;;;;17.40;10.65;;;;;;;12.58;95.35;102027.09;2106976;28;20012;-69
2021/10/27 00:19:50;;;;;;;18.07;9.00;;;;;;;12.57;95.21;102028.00;2106280;28;20020;-69
2021/10/27 00:20:51;;;;;;;15.40;7.90;;;;;;;12.57;95.13;102021.91;2097801;28;20078;-71
2021/10/27 00:21:51;;;;;;;12.17;7.90;;;;;;;12.56;95.40;102025.44;2106425;28;20028;-71
2021/10/27 00:22:51;;;;;;;15.77;10.90;;;;;;;12.55;95.27;102034.16;2107306;28;20403;-70
2021/10/27 00:23:51;;;;;;;13.10;7.85;;;;;;;12.53;95.83;102023.78;2107023;28;20237;-67
2021/10/27 00:24:52;;;;;;;20.20;9.17;;;;;;;12.51;95.88;102028.19;2106254;28;20030;-71
2021/10/27 00:25:52;;;;;;;14.90;9.93;;;;;;;12.51;96.59;102036.03;2106619;28;20028;-70
2021/10/27 00:26:53;;;;;;;12.37;7.57;;;;;;;12.49;96.26;102037.88;2106882;28;20035;-72
2021/10/27 00:27:53;;;;;;;16.73;9.13;;;;;;;12.45;96.77;102036.22;2106853;28;20112;-69
2021/10/27 00:28:53;;;;;;;16.97;8.33;;;;;;;12.43;96.72;102041.53;2106218;28;20070;-68
2021/10/27 00:29:54;;;;;;;16.27;7.77;;;;;;;12.40;97.30;102036.38;2097918;28;20028;-72
2021/10/27 00:30:54;;;;;;;15.83;7.00;;;;;;;12.39;97.34;102037.28;2106316;28;20111;-69
2021/10/27 00:31:54;;;;;;;16.83;7.70;;;;;;;12.38;97.36;102034.72;2106908;28;20028;-69
2021/10/27 00:32:57;;;;;;;17.43;9.27;;;;;;;12.34;97.46;102034.81;2106716;28;20290;-70
2021/10/27 00:33:57;;;;;;;12.65;8.85;;;;;;;12.36;97.69;102035.59;2106641;28;20030;-70
2021/10/27 00:34:58;;;;;;;13.20;8.13;;;;;;;12.32;97.53;102028.75;2106791;28;20024;-71
2021/10/27 00:35:58;;;;;;;16.15;8.15;;;;;;;12.31;97.80;102034.91;2106701;28;20537;-70
2021/10/27 00:36:59;;;;;;;15.90;8.35;;;;;;;12.29;97.97;102033.25;2106473;28;20044;-73
2021/10/27 00:37:59;;;;;;;13.40;8.43;;;;;;;12.28;98.24;102032.38;2106790;28;20067;-70
2021/10/27 00:38:59;;;;;;;17.07;8.67;;;;;;;12.26;98.49;102035.94;2106788;28;20278;-70
2021/10/27 00:40:00;;;;;;;15.73;8.10;;;;;;;12.25;98.54;102027.22;2106727;28;20477;-70
2021/10/27 00:41:00;;;;;;;19.35;9.40;;;;;;;12.23;98.71;102035.16;2106110;28;20032;-72
2021/10/27 00:42:01;;;;;;;14.50;8.07;;;;;;;12.22;98.83;102035.19;2097773;28;20040;-69
2021/10/27 00:43:01;;;;;;;14.65;8.85;;;;;;;12.24;98.78;102035.97;2106115;28;20068;-71
2021/10/27 00:44:01;;;;;;;18.53;9.77;;;;;;;12.23;98.88;102031.66;2106708;28;20023;-72
2021/10/27 00:45:03;;;;;;;16.00;9.60;;;;;;;12.24;98.54;102041.22;2106692;28;20028;-71
2021/10/27 00:46:03;;;;;;;;;;;;;;;12.25;98.44;102031.63;2106780;28;20110;-71
2021/10/27 00:47:09;;;;;;;12.20;9.68;;;;;;;12.24;98.70;102035.97;2097815;28;19909;-72
2021/10/27 00:48:09;;;;;;;17.13;9.70;;;;;;;12.26;98.33;102038.56;2106107;28;20028;-71
2021/10/27 00:49:09;;;;;;;16.93;8.50;;;;;;;12.26;98.46;102034.19;2106795;28;20020;-73
2021/10/27 00:50:10;;;;;;;14.10;8.97;;;;;;;12.26;98.42;102034.19;2106796;28;20073;-70
2021/10/27 00:51:10;;;;;;;16.00;8.88;;;;;;;12.28;97.57;102036.78;2106089;28;20016;-72
2021/10/27 00:52:13;;;;;;;23.65;9.68;;;;;;;12.28;97.85;102037.59;2106268;28;20508;-72
2021/10/27 00:53:14;;;;;;;14.00;9.48;;;;;;;12.30;97.83;102035.81;2106986;28;20025;-71
2021/10/27 00:54:15;;;;;;;22.00;10.65;;;;;;;12.31;97.39;102032.28;2106910;28;20035;-68
2021/10/27 00:55:15;;;;;;;16.67;10.98;;;;;;;12.33;97.33;102035.72;2106858;28;20489;-70
2021/10/27 00:56:17;;;;;;;22.10;10.03;;;;;;;12.33;97.68;102035.72;2106107;28;20127;-69
2021/10/27 00:57:21;;;;;;;22.75;10.40;;;;;;;12.34;97.51;102026.97;2105874;28;20308;-71
2021/10/27 00:58:21;;;;;;;16.63;10.75;;;;;;;12.35;97.20;102033.91;2106867;28;20024;-70
2021/10/27 00:59:23;;;;;;;16.90;9.77;;;;;;;12.35;97.20;102028.66;2106902;28;20059;-68
2021/10/27 01:00:24;;;;;;;20.58;9.73;;;;;;;12.33;97.11;102035.72;2106843;28;20080;-69
2021/10/27 01:01:24;;;;;;;20.70;10.20;;;;;;;12.31;97.41;102032.28;2106234;28;20447;-69
2021/10/27 01:02:24;;;;;;;14.30;9.33;;;;;;;12.31;97.88;102028.78;2106213;28;20103;-69
2021/10/27 01:03:24;;;;;;;14.30;10.57;;;;;;;12.30;97.67;102025.34;2106814;28;20483;-69
2021/10/27 01:04:25;;;;;;;18.57;9.10;;;;;;;12.29;97.59;102023.63;2106681;28;20069;-69
2021/10/27 01:05:26;;;;;;;16.30;9.63;;;;;;;12.33;97.83;102034.84;2106861;28;20020;-70
2021/10/27 01:06:26;;;;;;;20.53;10.23;;;;;;;12.32;97.49;102026.13;2106117;28;20050;-71
2021/10/27 01:07:27;;;;;;;19.07;8.87;;;;;;;12.33;97.35;102020.00;2106303;28;20059;-71
2021/10/27 01:08:27;;;;;;;18.92;9.05;;;;;;;12.33;97.08;102022.63;2106827;28;20462;-71
2021/10/27 01:09:28;;;;;;;17.80;10.07;;;;;;;12.32;97.27;102022.69;2106039;28;20023;-69
2021/10/27 01:10:28;;;;;;;15.77;10.67;;;;;;;12.33;97.73;102024.38;2106248;28;20421;-68
2021/10/27 01:11:28;;;;;;;14.37;7.70;;;;;;;12.33;97.40;102016.53;2105909;28;20043;-69
2021/10/27 01:12:29;;;;;;;12.87;9.03;;;;;;;12.33;97.06;102016.53;2106233;28;20036;-72
2021/10/27 01:13:29;;;;;;;15.20;8.10;;;;;;;12.32;97.30;102020.06;2106633;28;20035;-69
2021/10/27 01:14:35;;;;;;;22.23;9.03;;;;;;;12.31;97.64;102015.72;2106735;28;20032;-68
2021/10/27 01:15:39;;;;;;;16.58;8.48;;;;;;;12.29;97.63;102007.94;2106700;28;20145;-68
2021/10/27 01:16:40;;;;;;;16.10;9.40;;;;;;;12.29;97.14;102018.41;2106085;28;20053;-70
2021/10/27 01:17:40;;;;;;;13.75;9.18;;;;;;;12.29;97.43;102009.69;2097614;28;20024;-72
2021/10/27 01:18:40;;;;;;;16.53;8.97;;;;;;;12.28;97.55;102007.97;2106261;28;20020;-71
2021/10/27 01:19:59;;;;;;;12.30;8.30;;;;;;;12.26;97.10;102013.25;2106716;28;20020;-69
2021/10/27 01:20:59;;;;;;;17.25;8.80;;;;;;;12.25;97.22;102011.53;2106447;28;20016;-70
2021/10/27 01:21:59;;;;;;;19.43;8.00;;;;;;;12.24;97.43;102007.19;2106470;28;20040;-72
2021/10/27 01:22:59;;;;;;;13.90;9.20;;;;;;;12.26;97.67;102013.25;2106704;28;20036;-69
2021/10/27 01:24:00;;;;;;;18.80;8.47;;;;;;;12.27;97.77;102007.09;2106759;28;20035;-69
2021/10/27 01:25:03;;;;;;;19.45;8.98;;;;;;;12.28;97.52;102008.81;2106792;28;20028;-69
2021/10/27 01:26:05;;;;;;;15.65;8.50;;;;;;;12.31;97.71;102005.25;2106740;28;20056;-72
2021/10/27 01:27:06;;;;;;;10.65;8.35;;;;;;;12.30;96.93;102003.53;2106709;28;20077;-71
2021/10/27 01:28:06;;;;;;;14.33;9.30;;;;;;;12.32;97.36;102005.19;2106718;28;20032;-71
2021/10/27 01:29:06;;;;;;;15.90;9.57;;;;;;;12.31;97.47;101997.38;2106173;28;20024;-71
2021/10/27 01:30:10;;;;;;;16.07;8.60;;;;;;;12.31;97.02;102006.09;2097756;28;20109;-69
2021/10/27 01:31:13;;;;;;;13.10;8.75;;;;;;;12.34;96.74;101998.16;2106208;28;20028;-71
2021/10/27 01:32:27;;;;;;;20.40;8.77;;;;;;;12.36;97.29;101998.97;2106746;28;20073;-71
2021/10/27 01:33:27;;;;;;;19.63;9.18;;;;;;;12.36;96.56;102004.19;2105901;28;20024;-70
2021/10/27 01:34:27;;;;;;;12.37;7.50;;;;;;;12.39;96.48;101997.16;2106016;28;20119;-70
2021/10/27 01:35:28;;;;;;;16.20;7.97;;;;;;;12.40;96.44;101993.63;2106054;28;20111;-70
2021/10/27 01:36:29;;;;;;;16.83;8.60;;;;;;;12.41;96.39;102000.56;2097766;28;20449;-68
2021/10/27 01:37:29;;;;;;;;;;;;;;;12.42;96.46;101990.06;2106400;28;20554;-70
2021/10/27 01:38:31;;;;;;;12.82;7.85;;;;;;;12.41;96.54;101990.97;2106798;28;19908;-68
2021/10/27 01:39:31;;;;;;;;;;;;;;;12.44;96.47;101990.00;2107136;28;20028;-68
2021/10/27 01:40:31;;;;;;;14.70;7.13;;;;;;;12.44;95.76;101985.63;2106744;28;20364;-70
2021/10/27 01:41:31;;;;;;;13.63;7.67;;;;;;;12.46;96.06;101993.44;2106756;28;20054;-69
2021/10/27 01:42:32;;;;;;;16.37;7.43;;;;;;;12.46;96.21;101988.22;2106859;28;20476;-69
2021/10/27 01:43:47;;;;;;;14.03;7.50;;;;;;;12.47;95.79;101997.78;2106691;28;20064;-69
2021/10/27 01:44:47;;;;;;;15.90;7.30;;;;;;;12.48;95.99;101996.84;2106666;28;20027;-72
2021/10/27 01:45:48;;;;;;;15.32;8.73;;;;;;;12.49;95.78;101990.75;2106676;28;20023;-69
2021/10/27 01:46:48;;;;;;;12.27;7.27;;;;;;;12.49;95.73;101990.75;2106672;28;20062;-71
2021/10/27 01:47:48;;;;;;;14.47;7.47;;;;;;;12.50;95.96;101992.44;2106719;28;20278;-70
2021/10/27 01:48:49;;;;;;;13.67;7.33;;;;;;;12.49;95.71;101998.59;2106742;28;20177;-72
2021/10/27 01:49:49;;;;;;;16.47;7.40;;;;;;;12.50;95.88;101995.06;2105958;28;20016;-74
2021/10/27 01:50:49;;;;;;;13.40;8.17;;;;;;;12.49;95.73;101983.72;2097672;28;20107;-69
2021/10/27 01:51:50;;;;;;;10.60;7.17;;;;;;;12.49;95.79;101994.19;2106026;28;20081;-70
2021/10/27 01:52:50;;;;;;;12.27;6.95;;;;;;;12.49;95.77;101988.13;2107549;28;20198;-69
2021/10/27 01:53:51;;;;;;;10.30;6.80;;;;;;;12.50;95.50;101987.19;2107518;28;20504;-69
2021/10/27 01:54:51;;;;;;;12.43;7.07;;;;;;;12.52;94.98;101989.78;2107402;28;20282;-71
2021/10/27 01:55:52;;;;;;;12.95;7.07;;;;;;;12.53;95.34;101987.13;2106455;28;20296;-67
2021/10/27 01:56:53;;;;;;;13.13;7.50;;;;;;;12.52;95.68;101977.53;2106637;28;20062;-71
2021/10/27 01:57:54;;;;;;;14.55;7.15;;;;;;;12.53;95.18;101986.25;2108339;28;20028;-69
2021/10/27 01:58:55;;;;;;;11.65;7.00;;;;;;;12.53;95.36;101987.13;2107706;28;20025;-70
2021/10/27 01:59:55;;;;;;;14.43;7.65;;;;;;;12.54;94.75;101980.97;2107360;28;20038;-71
2021/10/27 02:00:55;;;;;;;14.33;6.77;;;;;;;12.53;95.06;101979.25;2107428;28;20385;-69
2021/10/27 02:01:55;;;;;;;16.73;7.30;;;;;;;12.53;94.84;101987.13;2107269;28;20028;-70
2021/10/27 02:02:56;;;;;;;14.40;8.17;;;;;;;12.54;95.25;101982.72;2107195;28;20053;-71
2021/10/27 02:03:57;;;;;;;16.37;7.10;;;;;;;12.54;95.02;101988.81;2106225;28;20512;-71
2021/10/27 02:04:57;;;;;;;12.75;7.57;;;;;;;12.54;94.88;101986.19;2106139;28;20030;-69
2021/10/27 02:05:57;;;;;;;14.90;7.03;;;;;;;12.54;94.89;101990.56;2106800;28;20112;-69
2021/10/27 02:06:58;;;;;;;12.63;6.60;;;;;;;12.55;94.96;101992.28;2106681;28;20496;-72
2021/10/27 02:07:58;;;;;;;13.47;7.27;;;;;;;12.53;94.79;101979.25;2106582;28;20499;-70
2021/10/27 02:08:58;;;;;;;15.13;7.70;;;;;;;12.55;94.97;101993.13;2107263;28;20036;-71
2021/10/27 02:09:59;;;;;;;11.93;7.03;;;;;;;12.52;94.95;101980.13;2108249;28;20027;-70
2021/10/27 02:10:59;;;;;;;10.43;7.73;;;;;;;12.52;94.68;101988.00;2108213;28;20024;-72
2021/10/27 02:11:59;;;;;;;15.15;8.10;;;;;;;12.52;95.15;101985.38;2107516;28;20423;-70
2021/10/27 02:13:00;;;;;;;15.33;6.80;;;;;;;12.52;94.88;101985.38;2099149;28;20026;-69
2021/10/27 02:14:00;;;;;;;13.77;7.80;;;;;;;12.54;94.69;101986.19;2107389;28;20024;-69
2021/10/27 02:15:01;;;;;;;13.70;7.07;;;;;;;12.55;94.18;101987.03;2107382;28;20031;-71
2021/10/27 02:16:02;;;;;;;10.18;6.75;;;;;;;12.55;94.39;101982.66;2107407;28;20444;-70
2021/10/27 02:17:02;;;;;;;12.75;7.18;;;;;;;12.55;94.29;101992.28;2108065;28;20452;-71
2021/10/27 02:18:03;;;;;;;13.77;7.82;;;;;;;12.55;94.02;101987.91;2107426;28;20062;-70
2021/10/27 02:19:06;;;;;;;11.90;7.27;;;;;;;12.55;94.62;101989.66;2107475;28;20020;-70
2021/10/27 02:20:07;;;;;;;16.15;8.50;;;;;;;12.53;94.28;101989.72;2108088;28;20398;-70
2021/10/27 02:21:07;;;;;;;18.60;8.23;;;;;;;12.56;94.20;101994.84;2107990;28;20056;-70
2021/10/27 02:22:08;;;;;;;11.50;7.53;;;;;;;12.54;94.09;101980.97;2107990;28;20142;-68
2021/10/27 02:23:08;;;;;;;9.27;7.77;;;;;;;12.55;94.02;101982.66;2107371;28;20111;-71
2021/10/27 02:24:08;;;;;;;15.97;7.53;;;;;;;12.54;94.31;101980.97;2107406;28;20028;-72
2021/10/27 02:25:09;;;;;;;10.70;7.60;;;;;;;12.53;94.54;101976.63;2107343;28;20570;-70
2021/10/27 02:26:09;;;;;;;14.93;7.80;;;;;;;12.54;94.57;101980.09;2107460;28;20236;-66
2021/10/27 02:27:09;;;;;;;11.73;7.57;;;;;;;12.53;94.42;101983.63;2108074;28;20393;-70
2021/10/27 02:28:10;;;;;;;15.50;7.37;;;;;;;12.51;93.99;101975.81;2107347;28;20024;-70
2021/10/27 02:29:10;;;;;;;19.60;7.70;;;;;;;12.52;94.22;101977.53;2107389;28;20024;-67
2021/10/27 02:30:11;;;;;;;13.20;8.37;;;;;;;12.54;93.98;101985.34;2107886;28;20020;-70
2021/10/27 02:31:11;;;;;;;15.05;8.27;;;;;;;12.52;93.73;101974.91;2108084;28;20032;-70
2021/10/27 02:32:11;;;;;;;10.27;7.47;;;;;;;12.52;94.27;101984.53;2107880;28;20026;-71
2021/10/27 02:33:12;;;;;;;12.67;7.57;;;;;;;12.52;94.25;101981.91;2108073;28;20133;-70
2021/10/27 02:34:12;;;;;;;17.03;8.67;;;;;;;12.52;94.24;101988.00;2107102;28;20028;-70
2021/10/27 02:35:12;;;;;;;8.03;6.63;;;;;;;12.50;94.26;101987.19;2107354;28;20028;-69
2021/10/27 02:36:13;;;;;;;13.50;7.43;;;;;;;12.49;94.55;101982.88;2107283;28;20020;-70
2021/10/27 02:37:13;;;;;;;15.70;6.83;;;;;;;12.49;94.09;101990.75;2107853;28;20040;-70
2021/10/27 02:38:13;;;;;;;14.77;7.57;;;;;;;12.49;94.56;101998.59;2108044;28;20522;-70
2021/10/27 02:39:14;;;;;;;14.40;7.90;;;;;;;12.47;94.14;101990.78;2107244;28;20031;-69
2021/10/27 02:40:16;;;;;;;12.40;7.30;;;;;;;12.47;94.30;102003.88;2107250;28;20032;-71
2021/10/27 02:41:16;;;;;;;13.15;7.43;;;;;;;12.51;93.96;102007.25;2107916;28;20077;-69
2021/10/27 02:42:16;;;;;;;21.33;9.07;;;;;;;12.51;94.22;101995.91;2107226;28;20023;-71
2021/10/27 02:43:16;;;;;;;17.43;7.80;;;;;;;12.50;94.37;102000.28;2107272;28;20044;-70
2021/10/27 02:44:17;;;;;;;14.23;7.80;;;;;;;12.50;93.95;101995.06;2107103;28;20513;-67
2021/10/27 02:45:18;;;;;;;14.60;7.83;;;;;;;12.51;94.01;101999.38;2107357;28;20024;-70
2021/10/27 02:46:18;;;;;;;13.02;6.93;;;;;;;12.49;94.13;101988.94;2106975;28;20025;-73
2021/10/27 02:47:19;;;;;;;11.98;7.82;;;;;;;12.50;93.80;101992.44;2107126;28;20032;-71
2021/10/27 02:48:19;;;;;;;12.77;7.17;;;;;;;12.52;93.94;101995.00;2107172;28;20024;-70
2021/10/27 02:49:19;;;;;;;13.60;7.57;;;;;;;12.52;93.81;101988.00;2107196;28;20022;-70
2021/10/27 02:50:20;;;;;;;17.33;8.40;;;;;;;12.53;93.90;101984.50;2107666;28;20019;-70
2021/10/27 02:51:20;;;;;;;12.70;8.05;;;;;;;12.53;93.56;101987.13;2107039;28;20107;-70
2021/10/27 02:52:20;;;;;;;12.33;6.73;;;;;;;12.54;93.55;101988.81;2106942;28;20119;-70
2021/10/27 02:53:20;;;;;;;10.73;6.93;;;;;;;12.54;93.60;101986.19;2107105;28;20500;-69
2021/10/27 02:54:21;;;;;;;11.70;6.97;;;;;;;12.53;94.12;101979.25;2107701;28;20485;-70
2021/10/27 02:55:21;;;;;;;12.20;6.83;;;;;;;12.54;93.57;101977.47;2107656;28;20103;-71
2021/10/27 02:56:21;;;;;;;11.77;7.27;;;;;;;12.52;93.98;101977.53;2107766;28;20024;-71
2021/10/27 02:57:22;;;;;;;12.53;6.30;;;;;;;12.53;93.54;101974.03;2107499;28;20058;-70
2021/10/27 02:58:22;;;;;;;14.00;7.85;;;;;;;12.54;93.73;101980.97;2107613;28;20028;-68
2021/10/27 02:59:23;;;;;;;10.97;5.47;;;;;;;12.52;93.43;101982.75;2107583;28;20020;-69
2021/10/27 03:00:23;;;;;;;12.70;5.23;;;;;;;12.52;93.68;101988.00;2107619;28;20051;-69
2021/10/27 03:01:24;;;;;;;16.08;7.43;;;;;;;12.51;93.96;101991.53;2107511;28;20024;-69
2021/10/27 03:02:24;;;;;;;13.00;6.53;;;;;;;12.50;93.97;101984.59;2107631;28;20454;-69
2021/10/27 03:03:25;;;;;;;16.33;8.05;;;;;;;12.51;93.20;101994.16;2107112;28;20364;-71
2021/10/27 03:04:25;;;;;;;13.73;7.17;;;;;;;12.52;93.39;101988.00;2098583;28;20473;-71
2021/10/27 03:05:26;;;;;;;11.90;7.38;;;;;;;12.52;93.47;101988.00;2106995;28;20045;-71
2021/10/27 03:06:26;;;;;;;15.30;8.07;;;;;;;12.54;93.68;101995.81;2107003;28;20540;-71
2021/10/27 03:07:27;;;;;;;14.60;7.27;;;;;;;12.53;93.98;102000.22;2107038;28;20504;-70
2021/10/27 03:08:27;;;;;;;15.43;8.93;;;;;;;12.53;93.39;101992.34;2107541;28;20016;-70
2021/10/27 03:09:27;;;;;;;9.50;4.77;;;;;;;12.53;93.40;102000.22;2106735;28;20024;-70
2021/10/27 03:10:27;;;;;;;14.93;7.00;;;;;;;12.54;93.72;101994.06;2106915;28;20028;-69
2021/10/27 03:11:28;;;;;;;18.37;8.80;;;;;;;12.54;93.72;101999.28;2107682;28;20074;-69
2021/10/27 03:12:28;;;;;;;14.80;8.00;;;;;;;12.50;93.97;101995.06;2107046;28;20078;-71
2021/10/27 03:13:28;;;;;;;16.13;8.03;;;;;;;12.50;93.66;102005.53;2107061;28;20039;-72
2021/10/27 03:14:29;;;;;;;15.30;8.07;;;;;;;12.49;93.69;102004.66;2107561;28;20493;-72
2021/10/27 03:15:29;;;;;;;17.30;8.53;;;;;;;12.50;93.48;101995.06;2107711;28;20020;-71
2021/10/27 03:16:29;;;;;;;17.87;7.97;;;;;;;12.52;93.29;101997.63;2107641;28;20388;-70
2021/10/27 03:17:30;;;;;;;13.27;8.00;;;;;;;12.50;93.65;101984.59;2107696;28;20032;-69
2021/10/27 03:18:30;;;;;;;13.37;8.27;;;;;;;12.51;93.06;101983.66;2107632;28;20028;-69
2021/10/27 03:19:30;;;;;;;17.00;7.90;;;;;;;12.52;93.58;101988.00;2106804;28;20416;-70
2021/10/27 03:20:30;;;;;;;16.17;8.10;;;;;;;12.48;93.31;101984.63;2106909;28;20028;-70
2021/10/27 03:21:31;;;;;;;12.00;8.13;;;;;;;12.51;93.27;101990.66;2107314;28;20121;-69
2021/10/27 03:22:31;;;;;;;13.57;7.80;;;;;;;12.50;93.44;101987.19;2107204;28;20016;-69
2021/10/27 03:23:32;;;;;;;19.83;8.02;;;;;;;12.49;93.45;101988.94;2107547;28;20066;-70
2021/10/27 03:24:32;;;;;;;13.43;7.67;;;;;;;12.49;93.45;101982.88;2107531;28;20030;-71
2021/10/27 03:25:33;;;;;;;12.00;7.13;;;;;;;12.48;93.51;101992.50;2107508;28;20294;-69
2021/10/27 03:26:33;;;;;;;12.73;7.13;;;;;;;12.46;93.57;101998.69;2107552;28;20020;-70
2021/10/27 03:27:34;;;;;;;16.17;8.45;;;;;;;12.45;93.86;101991.72;2107004;28;20059;-69
2021/10/27 03:28:34;;;;;;;8.93;6.40;;;;;;;12.44;93.70;101997.84;2107085;28;20039;-69
2021/10/27 03:29:34;;;;;;;16.03;7.90;;;;;;;12.42;93.53;101999.69;2107439;28;20065;-67
2021/10/27 03:30:35;;;;;;;13.50;6.80;;;;;;;12.40;93.93;101998.88;2107527;28;20020;-67
2021/10/27 03:31:35;;;;;;;17.67;8.07;;;;;;;12.39;94.08;102002.41;2107584;28;20469;-69
2021/10/27 03:32:36;;;;;;;16.65;7.57;;;;;;;12.37;93.71;101999.81;2107604;28;20473;-70
2021/10/27 03:33:36;;;;;;;13.77;6.90;;;;;;;12.36;94.20;102009.44;2107557;28;20035;-69
2021/10/27 03:34:40;;;;;;;14.10;7.68;;;;;;;12.34;93.56;102008.63;2107391;28;20063;-69
2021/10/27 03:35:41;;;;;;;15.60;8.13;;;;;;;12.30;93.99;102007.03;2107597;28;20024;-69
2021/10/27 03:36:41;;;;;;;13.10;7.70;;;;;;;12.29;94.27;102007.06;2107269;28;20026;-68
2021/10/27 03:37:42;;;;;;;12.50;6.82;;;;;;;12.26;93.82;102001.91;2107236;28;20020;-69
2021/10/27 03:38:42;;;;;;;11.90;7.43;;;;;;;12.19;93.93;101996.03;2107410;28;20491;-70
2021/10/27 03:39:43;;;;;;;10.70;6.55;;;;;;;12.16;94.01;102006.59;2106593;28;20028;-70
2021/10/27 03:40:45;;;;;;;11.10;5.70;;;;;;;12.09;94.69;102001.56;2106600;28;20032;-70
2021/10/27 03:41:46;;;;;;;11.50;7.47;;;;;;;12.06;94.96;102000.75;2107368;28;20012;-69
2021/10/27 03:42:46;;;;;;;15.20;6.75;;;;;;;12.02;95.02;102009.59;2107279;28;20018;-69
2021/10/27 03:43:48;;;;;;;13.70;5.68;;;;;;;11.96;95.46;102000.16;2107207;28;20089;-70
2021/10/27 03:44:48;;;;;;;10.77;6.20;;;;;;;11.94;95.20;102001.97;2107014;28;20149;-71
2021/10/27 03:45:48;;;;;;;10.00;5.30;;;;;;;11.92;95.49;102009.00;2107178;28;20065;-70
2021/10/27 03:46:50;;;;;;;10.73;7.00;;;;;;;11.89;95.53;102001.22;2107047;28;20488;-69
2021/10/27 03:47:50;;;;;;;11.30;6.32;;;;;;;11.89;95.30;102009.94;2107182;28;20016;-68
2021/10/27 03:48:50;;;;;;;13.83;6.37;;;;;;;11.85;95.50;102006.53;2107244;28;20032;-70
2021/10/27 03:49:51;;;;;;;12.95;7.35;;;;;;;11.84;95.38;102010.06;2107156;28;20016;-69
2021/10/27 03:50:51;;;;;;;13.70;7.57;;;;;;;11.82;95.98;102009.28;2107274;28;20544;-69
2021/10/27 03:51:52;;;;;;;14.90;8.23;;;;;;;11.80;95.63;102011.06;2107278;28;20032;-70
2021/10/27 03:52:52;;;;;;;15.55;6.82;;;;;;;11.80;96.26;102010.22;2106444;28;20027;-70
2021/10/27 03:53:52;;;;;;;17.23;8.07;;;;;;;11.80;96.26;102005.84;2106559;28;20040;-69
2021/10/27 03:54:53;;;;;;;12.90;7.50;;;;;;;11.78;95.67;102012.03;2107220;28;20056;-68
2021/10/27 03:55:54;;;;;;;12.50;7.27;;;;;;;11.74;95.87;102000.81;2107227;28;20485;-70
2021/10/27 03:56:55;;;;;;;12.57;7.60;;;;;;;11.71;95.73;102003.50;2107236;28;20437;-69
2021/10/27 03:57:58;;;;;;;13.37;6.77;;;;;;;11.71;95.77;102009.56;2107186;28;20067;-69
2021/10/27 03:58:58;;;;;;;10.13;7.45;;;;;;;11.70;96.16;102010.47;2106506;28;20409;-70
2021/10/27 03:59:59;;;;;;;13.03;7.53;;;;;;;11.69;96.32;102015.75;2106520;28;20027;-71
2021/10/27 04:01:00;;;;;;;11.57;6.88;;;;;;;11.65;96.27;102007.16;2107114;28;20431;-68
2021/10/27 04:02:01;;;;;;;14.38;7.47;;;;;;;11.65;96.40;102006.28;2107148;28;20027;-68
2021/10/27 04:03:01;;;;;;;18.48;8.27;;;;;;;11.63;96.05;102016.78;2107236;28;20504;-69
2021/10/27 04:04:02;;;;;;;16.17;8.47;;;;;;;11.59;96.71;102008.16;2107200;28;20090;-68
2021/10/27 04:05:02;;;;;;;14.10;7.57;;;;;;;11.55;97.26;102011.78;2106595;28;20079;-69
2021/10/27 04:06:03;;;;;;;12.10;7.20;;;;;;;11.55;96.68;102017.00;2106515;28;20085;-69
2021/10/27 04:07:03;;;;;;;10.93;7.00;;;;;;;11.53;97.19;102013.56;2107126;28;20056;-71
2021/10/27 04:08:04;;;;;;;14.33;7.87;;;;;;;11.52;97.18;102005.75;2107211;28;20023;-69
2021/10/27 04:09:04;;;;;;;12.43;8.77;;;;;;;11.51;97.21;102012.75;2107188;28;20049;-68
2021/10/27 04:10:09;;;;;;;14.37;7.57;;;;;;;11.50;97.33;102005.78;2106588;28;20052;-72
2021/10/27 04:11:10;;;;;;;16.52;7.40;;;;;;;11.48;96.98;102010.22;2106535;28;20020;-71
2021/10/27 04:12:10;;;;;;;16.30;7.45;;;;;;;11.45;96.98;102010.31;2107186;28;20051;-71
2021/10/27 04:13:15;;;;;;;16.33;7.07;;;;;;;11.44;97.49;102013.81;2107209;28;20024;-69
2021/10/27 04:14:15;;;;;;;12.73;7.15;;;;;;;11.43;96.67;102009.50;2107072;28;20032;-72
2021/10/27 04:15:16;;;;;;;13.43;7.97;;;;;;;11.42;97.38;102013.00;2107112;28;20427;-68
2021/10/27 04:16:16;;;;;;;13.30;7.37;;;;;;;11.41;97.54;102019.13;2106978;28;20464;-69
2021/10/27 04:17:16;;;;;;;31.13;7.90;;;;;;;11.41;97.39;102019.13;2107038;28;20032;-67
2021/10/27 04:18:17;;;;;;;16.90;8.17;;;;;;;11.39;97.45;102010.50;2106992;28;20034;-68
2021/10/27 04:19:17;;;;;;;13.23;7.60;;;;;;;11.40;97.38;102017.41;2107213;28;20024;-66
2021/10/27 04:20:17;;;;;;;14.77;9.50;;;;;;;11.38;97.50;102013.97;2107070;28;20098;-68
2021/10/27 04:21:17;;;;;;;16.13;8.10;;;;;;;11.36;97.76;102011.41;2107054;28;20481;-67
2021/10/27 04:22:18;;;;;;;12.53;8.27;;;;;;;11.37;97.65;102009.66;2106720;28;20026;-68
2021/10/27 04:23:18;;;;;;;15.73;7.80;;;;;;;11.37;97.63;102007.03;2107023;28;20031;-68
2021/10/27 04:24:18;;;;;;;15.97;7.80;;;;;;;11.34;97.09;102008.00;2106892;28;20469;-67
2021/10/27 04:25:18;;;;;;;14.10;7.60;;;;;;;11.29;97.47;102013.31;2107126;28;20024;-68
2021/10/27 04:26:19;;;;;;;10.97;8.60;;;;;;;11.26;97.59;102016.03;2107007;28;20121;-67
2021/10/27 04:27:19;;;;;;;17.43;8.33;;;;;;;11.25;98.05;102011.69;2106950;28;20016;-68
2021/10/27 04:28:19;;;;;;;11.33;7.43;;;;;;;11.26;97.91;102007.34;2107027;28;20031;-68
2021/10/27 04:29:20;;;;;;;12.97;7.80;;;;;;;11.24;98.08;102001.28;2106973;28;20024;-64
2021/10/27 04:30:20;;;;;;;12.20;7.57;;;;;;;11.23;97.96;102012.66;2106984;28;20031;-67
2021/10/27 04:31:21;;;;;;;17.77;7.47;;;;;;;11.20;98.17;102017.03;2106610;28;20019;-68
2021/10/27 04:32:22;;;;;;;13.48;7.97;;;;;;;11.22;98.01;102009.16;2106821;28;20028;-67
2021/10/27 04:33:22;;;;;;;12.60;8.13;;;;;;;11.23;98.70;102010.91;2106969;28;20487;-68
2021/10/27 04:34:23;;;;;;;18.77;8.52;;;;;;;11.20;98.09;102006.59;2106919;28;20024;-66
2021/10/27 04:35:25;;;;;;;12.77;6.75;;;;;;;11.19;98.45;102015.31;2106791;28;20032;-67
2021/10/27 04:36:25;;;;;;;11.43;7.07;;;;;;;11.15;98.33;102005.84;2106874;28;20077;-67
2021/10/27 04:37:27;;;;;;;10.80;7.60;;;;;;;11.16;97.98;102004.94;2106698;28;20043;-65
2021/10/27 04:38:27;;;;;;;14.30;8.25;;;;;;;11.14;98.28;102006.75;2106952;28;20285;-67
2021/10/27 04:39:27;;;;;;;15.07;8.53;;;;;;;11.13;98.51;102014.63;2106854;28;20390;-67